sensor_id;sensor_type;location;lat;lon;timestamp;P1;durP1;ratioP1;P2;durP2;ratioP2
48925;SDS011;39838;59.938;30.642;2022-08-19T00:00:17;13.50;;;9.50;;
48925;SDS011;39838;59.938;30.642;2022-08-19T00:02:45;17.75;;;9.98;;
48925;SDS011;39838;59.938;30.642;2022-08-19T00:05:13;14.27;;;10.45;;
48925;SDS011;39838;59.938;30.642;2022-08-19T00:07:41;15.75;;;10.32;;
48925;SDS011;39838;59.938;30.642;2022-08-19T00:10:10;24.02;;;10.40;;
48925;SDS011;39838;59.938;30.642;2022-08-19T00:12:38;14.07;;;10.07;;
48925;SDS011;39838;59.938;30.642;2022-08-19T00:15:06;15.45;;;9.88;;
48925;SDS011;39838;59.938;30.642;2022-08-19T00:17:36;15.10;;;10.02;;
48925;SDS011;39838;59.938;30.642;2022-08-19T00:20:03;15.40;;;10.52;;
48925;SDS011;39838;59.938;30.642;2022-08-19T00:22:31;15.57;;;10.27;;
48925;SDS011;39838;59.938;30.642;2022-08-19T00:24:59;16.38;;;10.75;;
48925;SDS011;39838;59.938;30.642;2022-08-19T00:27:27;14.45;;;9.60;;
48925;SDS011;39838;59.938;30.642;2022-08-19T00:29:54;15.32;;;10.63;;
48925;SDS011;39838;59.938;30.642;2022-08-19T00:32:21;20.73;;;10.77;;
48925;SDS011;39838;59.938;30.642;2022-08-19T00:34:49;15.40;;;10.30;;
48925;SDS011;39838;59.938;30.642;2022-08-19T00:37:18;19.58;;;10.20;;
48925;SDS011;39838;59.938;30.642;2022-08-19T00:39:47;13.98;;;9.75;;
48925;SDS011;39838;59.938;30.642;2022-08-19T00:42:16;14.52;;;9.93;;
48925;SDS011;39838;59.938;30.642;2022-08-19T00:48:06;16.75;;;10.13;;
48925;SDS011;39838;59.938;30.642;2022-08-19T00:50:32;13.18;;;10.07;;
48925;SDS011;39838;59.938;30.642;2022-08-19T00:53:00;14.90;;;10.20;;
48925;SDS011;39838;59.938;30.642;2022-08-19T00:55:29;18.90;;;10.70;;
48925;SDS011;39838;59.938;30.642;2022-08-19T00:57:59;14.52;;;10.10;;
48925;SDS011;39838;59.938;30.642;2022-08-19T01:00:31;15.57;;;10.07;;
48925;SDS011;39838;59.938;30.642;2022-08-19T01:03:01;17.23;;;9.73;;
48925;SDS011;39838;59.938;30.642;2022-08-19T01:05:30;14.73;;;9.85;;
48925;SDS011;39838;59.938;30.642;2022-08-19T01:07:58;14.38;;;9.55;;
48925;SDS011;39838;59.938;30.642;2022-08-19T01:10:30;17.52;;;10.32;;
48925;SDS011;39838;59.938;30.642;2022-08-19T01:13:00;15.40;;;10.10;;
48925;SDS011;39838;59.938;30.642;2022-08-19T01:15:29;16.92;;;10.45;;
48925;SDS011;39838;59.938;30.642;2022-08-19T01:17:58;14.60;;;9.98;;
48925;SDS011;39838;59.938;30.642;2022-08-19T01:20:27;14.65;;;10.25;;
48925;SDS011;39838;59.938;30.642;2022-08-19T01:22:57;13.85;;;10.07;;
48925;SDS011;39838;59.938;30.642;2022-08-19T01:25:26;14.25;;;10.38;;
48925;SDS011;39838;59.938;30.642;2022-08-19T01:27:56;13.57;;;10.45;;
48925;SDS011;39838;59.938;30.642;2022-08-19T01:30:24;15.00;;;10.82;;
48925;SDS011;39838;59.938;30.642;2022-08-19T01:32:55;17.05;;;10.45;;
48925;SDS011;39838;59.938;30.642;2022-08-19T01:35:26;17.30;;;10.95;;
48925;SDS011;39838;59.938;30.642;2022-08-19T01:37:57;12.93;;;10.27;;
48925;SDS011;39838;59.938;30.642;2022-08-19T01:40:30;17.60;;;11.27;;
48925;SDS011;39838;59.938;30.642;2022-08-19T01:42:59;16.60;;;10.23;;
48925;SDS011;39838;59.938;30.642;2022-08-19T01:45:27;14.70;;;10.85;;
48925;SDS011;39838;59.938;30.642;2022-08-19T01:47:57;20.65;;;11.05;;
48925;SDS011;39838;59.938;30.642;2022-08-19T01:50:25;14.95;;;10.68;;
48925;SDS011;39838;59.938;30.642;2022-08-19T01:52:53;16.02;;;11.27;;
48925;SDS011;39838;59.938;30.642;2022-08-19T01:55:21;18.60;;;11.50;;
48925;SDS011;39838;59.938;30.642;2022-08-19T01:57:50;16.15;;;11.02;;
48925;SDS011;39838;59.938;30.642;2022-08-19T02:00:22;14.18;;;11.05;;
48925;SDS011;39838;59.938;30.642;2022-08-19T02:02:51;15.60;;;10.77;;
48925;SDS011;39838;59.938;30.642;2022-08-19T02:05:18;15.25;;;10.77;;
48925;SDS011;39838;59.938;30.642;2022-08-19T02:07:46;14.95;;;10.88;;
48925;SDS011;39838;59.938;30.642;2022-08-19T02:10:15;17.30;;;11.40;;
48925;SDS011;39838;59.938;30.642;2022-08-19T02:12:46;17.42;;;11.38;;
48925;SDS011;39838;59.938;30.642;2022-08-19T02:15:14;17.42;;;10.98;;
48925;SDS011;39838;59.938;30.642;2022-08-19T02:17:41;20.10;;;11.25;;
48925;SDS011;39838;59.938;30.642;2022-08-19T02:20:09;16.15;;;11.13;;
48925;SDS011;39838;59.938;30.642;2022-08-19T02:22:38;16.13;;;10.80;;
48925;SDS011;39838;59.938;30.642;2022-08-19T02:25:08;17.38;;;11.52;;
48925;SDS011;39838;59.938;30.642;2022-08-19T02:27:35;22.50;;;12.02;;
48925;SDS011;39838;59.938;30.642;2022-08-19T02:30:05;18.45;;;11.90;;
48925;SDS011;39838;59.938;30.642;2022-08-19T02:32:34;15.80;;;10.98;;
48925;SDS011;39838;59.938;30.642;2022-08-19T02:35:01;20.08;;;11.90;;
48925;SDS011;39838;59.938;30.642;2022-08-19T02:37:29;19.75;;;11.05;;
48925;SDS011;39838;59.938;30.642;2022-08-19T02:40:13;14.38;;;11.68;;
48925;SDS011;39838;59.938;30.642;2022-08-19T02:42:42;14.98;;;11.27;;
48925;SDS011;39838;59.938;30.642;2022-08-19T02:45:12;13.80;;;10.98;;
48925;SDS011;39838;59.938;30.642;2022-08-19T02:47:40;14.20;;;11.40;;
48925;SDS011;39838;59.938;30.642;2022-08-19T02:50:08;16.10;;;11.27;;
48925;SDS011;39838;59.938;30.642;2022-08-19T02:52:36;18.13;;;12.02;;
48925;SDS011;39838;59.938;30.642;2022-08-19T02:55:03;17.67;;;12.02;;
48925;SDS011;39838;59.938;30.642;2022-08-19T02:57:31;14.00;;;11.40;;
48925;SDS011;39838;59.938;30.642;2022-08-19T02:59:59;16.23;;;11.68;;
48925;SDS011;39838;59.938;30.642;2022-08-19T03:02:28;19.88;;;11.80;;
48925;SDS011;39838;59.938;30.642;2022-08-19T03:04:55;17.90;;;11.57;;
48925;SDS011;39838;59.938;30.642;2022-08-19T03:07:22;21.02;;;11.57;;
48925;SDS011;39838;59.938;30.642;2022-08-19T03:09:49;16.05;;;11.80;;
48925;SDS011;39838;59.938;30.642;2022-08-19T03:12:16;18.35;;;11.70;;
48925;SDS011;39838;59.938;30.642;2022-08-19T03:14:44;18.83;;;11.60;;
48925;SDS011;39838;59.938;30.642;2022-08-19T03:17:11;19.40;;;11.90;;
48925;SDS011;39838;59.938;30.642;2022-08-19T03:19:40;19.65;;;12.07;;
48925;SDS011;39838;59.938;30.642;2022-08-19T03:22:08;14.32;;;11.25;;
48925;SDS011;39838;59.938;30.642;2022-08-19T03:24:35;15.60;;;11.20;;
48925;SDS011;39838;59.938;30.642;2022-08-19T03:27:03;16.98;;;11.38;;
48925;SDS011;39838;59.938;30.642;2022-08-19T03:29:30;17.30;;;11.80;;
48925;SDS011;39838;59.938;30.642;2022-08-19T03:31:58;16.67;;;11.82;;
48925;SDS011;39838;59.938;30.642;2022-08-19T03:34:27;15.77;;;11.10;;
48925;SDS011;39838;59.938;30.642;2022-08-19T03:36:58;15.75;;;11.70;;
48925;SDS011;39838;59.938;30.642;2022-08-19T03:39:29;18.42;;;11.63;;
48925;SDS011;39838;59.938;30.642;2022-08-19T03:41:56;22.20;;;12.68;;
48925;SDS011;39838;59.938;30.642;2022-08-19T03:44:25;22.25;;;11.65;;
48925;SDS011;39838;59.938;30.642;2022-08-19T03:46:52;20.25;;;12.30;;
48925;SDS011;39838;59.938;30.642;2022-08-19T03:49:22;22.45;;;12.57;;
48925;SDS011;39838;59.938;30.642;2022-08-19T03:51:52;20.83;;;11.98;;
48925;SDS011;39838;59.938;30.642;2022-08-19T03:54:22;17.05;;;12.27;;
48925;SDS011;39838;59.938;30.642;2022-08-19T03:56:51;16.70;;;12.52;;
48925;SDS011;39838;59.938;30.642;2022-08-19T03:59:20;17.35;;;12.85;;
48925;SDS011;39838;59.938;30.642;2022-08-19T04:01:50;14.77;;;11.80;;
48925;SDS011;39838;59.938;30.642;2022-08-19T04:04:18;24.92;;;11.98;;
48925;SDS011;39838;59.938;30.642;2022-08-19T04:06:45;15.20;;;12.25;;
48925;SDS011;39838;59.938;30.642;2022-08-19T04:09:13;21.40;;;11.95;;
48925;SDS011;39838;59.938;30.642;2022-08-19T04:11:45;18.17;;;12.65;;
48925;SDS011;39838;59.938;30.642;2022-08-19T04:14:14;18.90;;;12.70;;
48925;SDS011;39838;59.938;30.642;2022-08-19T04:16:42;16.70;;;11.80;;
48925;SDS011;39838;59.938;30.642;2022-08-19T04:19:11;18.85;;;12.52;;
48925;SDS011;39838;59.938;30.642;2022-08-19T04:21:39;14.70;;;11.73;;
48925;SDS011;39838;59.938;30.642;2022-08-19T04:24:11;20.25;;;12.27;;
48925;SDS011;39838;59.938;30.642;2022-08-19T04:26:39;18.23;;;12.15;;
48925;SDS011;39838;59.938;30.642;2022-08-19T04:29:09;18.05;;;12.18;;
48925;SDS011;39838;59.938;30.642;2022-08-19T04:31:37;21.95;;;12.25;;
48925;SDS011;39838;59.938;30.642;2022-08-19T04:34:05;18.38;;;12.75;;
48925;SDS011;39838;59.938;30.642;2022-08-19T04:36:36;19.05;;;12.57;;
48925;SDS011;39838;59.938;30.642;2022-08-19T04:39:05;17.20;;;12.32;;
48925;SDS011;39838;59.938;30.642;2022-08-19T04:41:34;18.75;;;12.00;;
48925;SDS011;39838;59.938;30.642;2022-08-19T04:44:20;19.60;;;11.55;;
48925;SDS011;39838;59.938;30.642;2022-08-19T04:46:48;15.00;;;12.48;;
48925;SDS011;39838;59.938;30.642;2022-08-19T04:49:17;20.80;;;12.25;;
48925;SDS011;39838;59.938;30.642;2022-08-19T04:51:46;18.02;;;12.32;;
48925;SDS011;39838;59.938;30.642;2022-08-19T04:54:14;18.20;;;12.00;;
48925;SDS011;39838;59.938;30.642;2022-08-19T04:56:41;18.00;;;12.15;;
48925;SDS011;39838;59.938;30.642;2022-08-19T04:59:09;20.58;;;12.23;;
48925;SDS011;39838;59.938;30.642;2022-08-19T05:01:37;20.90;;;12.30;;
48925;SDS011;39838;59.938;30.642;2022-08-19T05:04:05;21.75;;;12.07;;
48925;SDS011;39838;59.938;30.642;2022-08-19T05:06:33;17.27;;;12.00;;
48925;SDS011;39838;59.938;30.642;2022-08-19T05:09:00;21.13;;;12.57;;
48925;SDS011;39838;59.938;30.642;2022-08-19T05:11:32;19.15;;;11.73;;
48925;SDS011;39838;59.938;30.642;2022-08-19T05:14:01;18.95;;;11.32;;
48925;SDS011;39838;59.938;30.642;2022-08-19T05:16:29;19.45;;;12.68;;
48925;SDS011;39838;59.938;30.642;2022-08-19T05:18:57;17.77;;;11.82;;
48925;SDS011;39838;59.938;30.642;2022-08-19T05:21:42;18.02;;;13.18;;
48925;SDS011;39838;59.938;30.642;2022-08-19T05:24:27;17.80;;;11.95;;
48925;SDS011;39838;59.938;30.642;2022-08-19T05:26:54;22.25;;;12.00;;
48925;SDS011;39838;59.938;30.642;2022-08-19T05:29:24;18.48;;;12.82;;
48925;SDS011;39838;59.938;30.642;2022-08-19T05:31:53;23.60;;;11.90;;
48925;SDS011;39838;59.938;30.642;2022-08-19T05:34:23;20.30;;;11.57;;
48925;SDS011;39838;59.938;30.642;2022-08-19T05:36:52;16.23;;;11.65;;
48925;SDS011;39838;59.938;30.642;2022-08-19T05:39:23;18.83;;;12.32;;
48925;SDS011;39838;59.938;30.642;2022-08-19T05:41:52;21.85;;;11.52;;
48925;SDS011;39838;59.938;30.642;2022-08-19T05:44:22;17.75;;;11.73;;
48925;SDS011;39838;59.938;30.642;2022-08-19T05:46:51;15.00;;;11.40;;
48925;SDS011;39838;59.938;30.642;2022-08-19T05:49:19;17.08;;;11.32;;
48925;SDS011;39838;59.938;30.642;2022-08-19T05:51:49;20.17;;;11.05;;
48925;SDS011;39838;59.938;30.642;2022-08-19T05:54:16;19.20;;;11.50;;
48925;SDS011;39838;59.938;30.642;2022-08-19T05:56:44;19.92;;;11.68;;
48925;SDS011;39838;59.938;30.642;2022-08-19T05:59:13;14.73;;;10.88;;
48925;SDS011;39838;59.938;30.642;2022-08-19T06:01:42;21.30;;;11.07;;
48925;SDS011;39838;59.938;30.642;2022-08-19T06:04:11;16.80;;;10.93;;
48925;SDS011;39838;59.938;30.642;2022-08-19T06:06:39;15.82;;;10.98;;
48925;SDS011;39838;59.938;30.642;2022-08-19T06:09:08;22.52;;;11.27;;
48925;SDS011;39838;59.938;30.642;2022-08-19T06:11:36;17.13;;;11.05;;
48925;SDS011;39838;59.938;30.642;2022-08-19T06:14:07;17.15;;;11.25;;
48925;SDS011;39838;59.938;30.642;2022-08-19T06:16:35;21.25;;;11.20;;
48925;SDS011;39838;59.938;30.642;2022-08-19T06:19:05;17.77;;;10.38;;
48925;SDS011;39838;59.938;30.642;2022-08-19T06:21:33;17.30;;;11.05;;
48925;SDS011;39838;59.938;30.642;2022-08-19T06:24:03;21.10;;;10.98;;
48925;SDS011;39838;59.938;30.642;2022-08-19T06:26:33;14.90;;;10.82;;
48925;SDS011;39838;59.938;30.642;2022-08-19T06:29:00;25.15;;;10.77;;
48925;SDS011;39838;59.938;30.642;2022-08-19T06:31:29;16.83;;;10.98;;
48925;SDS011;39838;59.938;30.642;2022-08-19T06:33:58;18.25;;;10.85;;
48925;SDS011;39838;59.938;30.642;2022-08-19T06:36:29;18.27;;;11.40;;
48925;SDS011;39838;59.938;30.642;2022-08-19T06:38:59;19.35;;;11.45;;
48925;SDS011;39838;59.938;30.642;2022-08-19T06:41:27;17.98;;;11.68;;
48925;SDS011;39838;59.938;30.642;2022-08-19T06:43:56;19.45;;;11.23;;
48925;SDS011;39838;59.938;30.642;2022-08-19T06:46:23;20.73;;;10.52;;
48925;SDS011;39838;59.938;30.642;2022-08-19T06:48:51;24.75;;;10.60;;
48925;SDS011;39838;59.938;30.642;2022-08-19T06:51:19;15.88;;;10.60;;
48925;SDS011;39838;59.938;30.642;2022-08-19T06:53:49;21.58;;;11.48;;
48925;SDS011;39838;59.938;30.642;2022-08-19T06:56:19;16.27;;;10.57;;
48925;SDS011;39838;59.938;30.642;2022-08-19T06:58:48;18.92;;;9.85;;
48925;SDS011;39838;59.938;30.642;2022-08-19T07:01:18;17.55;;;9.32;;
48925;SDS011;39838;59.938;30.642;2022-08-19T07:03:46;23.40;;;9.95;;
48925;SDS011;39838;59.938;30.642;2022-08-19T07:06:14;18.33;;;9.73;;
48925;SDS011;39838;59.938;30.642;2022-08-19T07:08:43;18.92;;;9.75;;
48925;SDS011;39838;59.938;30.642;2022-08-19T07:11:12;19.67;;;9.57;;
48925;SDS011;39838;59.938;30.642;2022-08-19T07:13:43;19.45;;;9.32;;
48925;SDS011;39838;59.938;30.642;2022-08-19T07:16:11;19.33;;;9.40;;
48925;SDS011;39838;59.938;30.642;2022-08-19T07:18:41;16.65;;;9.15;;
48925;SDS011;39838;59.938;30.642;2022-08-19T07:21:10;13.75;;;8.68;;
48925;SDS011;39838;59.938;30.642;2022-08-19T07:23:38;15.10;;;9.30;;
48925;SDS011;39838;59.938;30.642;2022-08-19T07:26:06;15.27;;;9.23;;
48925;SDS011;39838;59.938;30.642;2022-08-19T07:28:34;14.95;;;9.30;;
48925;SDS011;39838;59.938;30.642;2022-08-19T07:31:04;12.85;;;8.73;;
48925;SDS011;39838;59.938;30.642;2022-08-19T07:33:32;16.73;;;9.55;;
48925;SDS011;39838;59.938;30.642;2022-08-19T07:36:02;15.85;;;8.95;;
48925;SDS011;39838;59.938;30.642;2022-08-19T07:38:31;14.88;;;8.98;;
48925;SDS011;39838;59.938;30.642;2022-08-19T07:40:58;13.80;;;9.13;;
48925;SDS011;39838;59.938;30.642;2022-08-19T07:43:26;14.50;;;8.57;;
48925;SDS011;39838;59.938;30.642;2022-08-19T07:45:53;16.10;;;8.77;;
48925;SDS011;39838;59.938;30.642;2022-08-19T07:48:21;13.35;;;8.50;;
48925;SDS011;39838;59.938;30.642;2022-08-19T07:50:51;13.75;;;8.95;;
48925;SDS011;39838;59.938;30.642;2022-08-19T07:53:21;17.95;;;8.90;;
48925;SDS011;39838;59.938;30.642;2022-08-19T07:55:48;18.23;;;8.70;;
48925;SDS011;39838;59.938;30.642;2022-08-19T07:58:18;16.02;;;8.57;;
48925;SDS011;39838;59.938;30.642;2022-08-19T08:00:47;12.55;;;8.18;;
48925;SDS011;39838;59.938;30.642;2022-08-19T08:03:16;17.80;;;8.40;;
48925;SDS011;39838;59.938;30.642;2022-08-19T08:05:45;12.30;;;8.38;;
48925;SDS011;39838;59.938;30.642;2022-08-19T08:08:32;10.52;;;8.05;;
48925;SDS011;39838;59.938;30.642;2022-08-19T08:11:17;13.25;;;8.23;;
48925;SDS011;39838;59.938;30.642;2022-08-19T08:13:46;13.85;;;8.50;;
48925;SDS011;39838;59.938;30.642;2022-08-19T08:16:14;15.00;;;8.10;;
48925;SDS011;39838;59.938;30.642;2022-08-19T08:18:41;16.70;;;8.95;;
48925;SDS011;39838;59.938;30.642;2022-08-19T08:21:10;10.80;;;8.35;;
48925;SDS011;39838;59.938;30.642;2022-08-19T08:23:38;12.48;;;8.13;;
48925;SDS011;39838;59.938;30.642;2022-08-19T08:26:06;12.30;;;8.68;;
48925;SDS011;39838;59.938;30.642;2022-08-19T08:28:33;16.73;;;8.30;;
48925;SDS011;39838;59.938;30.642;2022-08-19T08:31:00;14.07;;;8.25;;
48925;SDS011;39838;59.938;30.642;2022-08-19T08:33:28;11.90;;;8.77;;
48925;SDS011;39838;59.938;30.642;2022-08-19T08:35:56;15.63;;;8.00;;
48925;SDS011;39838;59.938;30.642;2022-08-19T08:38:23;17.70;;;8.02;;
48925;SDS011;39838;59.938;30.642;2022-08-19T08:40:53;16.35;;;7.90;;
48925;SDS011;39838;59.938;30.642;2022-08-19T08:43:33;14.95;;;7.45;;
48925;SDS011;39838;59.938;30.642;2022-08-19T08:46:03;12.38;;;7.70;;
48925;SDS011;39838;59.938;30.642;2022-08-19T08:48:34;9.88;;;7.53;;
48925;SDS011;39838;59.938;30.642;2022-08-19T08:51:09;14.68;;;7.70;;
48925;SDS011;39838;59.938;30.642;2022-08-19T08:53:40;10.98;;;7.55;;
48925;SDS011;39838;59.938;30.642;2022-08-19T08:56:12;16.60;;;7.88;;
48925;SDS011;39838;59.938;30.642;2022-08-19T08:58:42;12.98;;;7.15;;
48925;SDS011;39838;59.938;30.642;2022-08-19T09:01:15;11.13;;;7.00;;
48925;SDS011;39838;59.938;30.642;2022-08-19T09:03:42;13.00;;;6.85;;
48925;SDS011;39838;59.938;30.642;2022-08-19T09:06:12;14.45;;;6.97;;
48925;SDS011;39838;59.938;30.642;2022-08-19T09:08:52;10.60;;;6.70;;
48925;SDS011;39838;59.938;30.642;2022-08-19T09:11:32;11.35;;;6.68;;
48925;SDS011;39838;59.938;30.642;2022-08-19T09:14:10;13.88;;;6.32;;
48925;SDS011;39838;59.938;30.642;2022-08-19T09:16:50;13.43;;;6.47;;
48925;SDS011;39838;59.938;30.642;2022-08-19T09:19:17;14.65;;;6.38;;
48925;SDS011;39838;59.938;30.642;2022-08-19T09:21:44;9.32;;;5.93;;
48925;SDS011;39838;59.938;30.642;2022-08-19T09:24:11;12.07;;;6.00;;
48925;SDS011;39838;59.938;30.642;2022-08-19T09:26:40;10.25;;;6.03;;
48925;SDS011;39838;59.938;30.642;2022-08-19T09:29:08;14.82;;;5.93;;
48925;SDS011;39838;59.938;30.642;2022-08-19T09:31:36;10.57;;;5.95;;
48925;SDS011;39838;59.938;30.642;2022-08-19T09:34:03;16.38;;;5.68;;
48925;SDS011;39838;59.938;30.642;2022-08-19T09:36:31;13.25;;;5.80;;
48925;SDS011;39838;59.938;30.642;2022-08-19T09:39:01;16.48;;;5.25;;
48925;SDS011;39838;59.938;30.642;2022-08-19T09:41:30;10.90;;;5.30;;
48925;SDS011;39838;59.938;30.642;2022-08-19T09:43:58;10.95;;;5.30;;
48925;SDS011;39838;59.938;30.642;2022-08-19T09:46:26;9.63;;;5.18;;
48925;SDS011;39838;59.938;30.642;2022-08-19T09:48:57;14.68;;;5.47;;
48925;SDS011;39838;59.938;30.642;2022-08-19T09:51:26;10.95;;;5.20;;
48925;SDS011;39838;59.938;30.642;2022-08-19T09:53:54;11.98;;;5.13;;
48925;SDS011;39838;59.938;30.642;2022-08-19T09:56:25;10.77;;;5.40;;
48925;SDS011;39838;59.938;30.642;2022-08-19T09:58:52;10.48;;;5.25;;
48925;SDS011;39838;59.938;30.642;2022-08-19T10:01:21;18.30;;;5.45;;
48925;SDS011;39838;59.938;30.642;2022-08-19T10:03:50;12.07;;;5.13;;
48925;SDS011;39838;59.938;30.642;2022-08-19T10:06:19;8.45;;;4.90;;
48925;SDS011;39838;59.938;30.642;2022-08-19T10:08:47;13.07;;;5.50;;
48925;SDS011;39838;59.938;30.642;2022-08-19T10:11:15;15.68;;;5.30;;
48925;SDS011;39838;59.938;30.642;2022-08-19T10:13:42;8.00;;;4.93;;
48925;SDS011;39838;59.938;30.642;2022-08-19T10:16:11;13.93;;;5.72;;
48925;SDS011;39838;59.938;30.642;2022-08-19T10:18:42;7.28;;;5.03;;
48925;SDS011;39838;59.938;30.642;2022-08-19T10:21:10;10.18;;;5.13;;
48925;SDS011;39838;59.938;30.642;2022-08-19T10:23:39;12.10;;;5.30;;
48925;SDS011;39838;59.938;30.642;2022-08-19T10:26:10;8.73;;;5.40;;
48925;SDS011;39838;59.938;30.642;2022-08-19T10:28:39;16.55;;;5.30;;
48925;SDS011;39838;59.938;30.642;2022-08-19T10:31:06;14.30;;;5.50;;
48925;SDS011;39838;59.938;30.642;2022-08-19T10:33:34;12.10;;;5.70;;
48925;SDS011;39838;59.938;30.642;2022-08-19T10:36:04;9.55;;;5.07;;
48925;SDS011;39838;59.938;30.642;2022-08-19T10:38:34;12.13;;;5.45;;
48925;SDS011;39838;59.938;30.642;2022-08-19T10:41:09;8.02;;;5.60;;
48925;SDS011;39838;59.938;30.642;2022-08-19T10:43:37;10.05;;;5.13;;
48925;SDS011;39838;59.938;30.642;2022-08-19T10:46:05;11.48;;;5.40;;
48925;SDS011;39838;59.938;30.642;2022-08-19T10:48:32;15.85;;;5.57;;
48925;SDS011;39838;59.938;30.642;2022-08-19T10:51:00;13.13;;;5.68;;
48925;SDS011;39838;59.938;30.642;2022-08-19T10:53:46;12.00;;;5.82;;
48925;SDS011;39838;59.938;30.642;2022-08-19T10:56:13;10.57;;;5.78;;
48925;SDS011;39838;59.938;30.642;2022-08-19T10:58:58;11.20;;;5.13;;
48925;SDS011;39838;59.938;30.642;2022-08-19T11:01:28;13.98;;;5.10;;
48925;SDS011;39838;59.938;30.642;2022-08-19T11:03:56;9.90;;;5.20;;
48925;SDS011;39838;59.938;30.642;2022-08-19T11:06:23;10.50;;;5.78;;
48925;SDS011;39838;59.938;30.642;2022-08-19T11:08:52;10.27;;;5.43;;
48925;SDS011;39838;59.938;30.642;2022-08-19T11:11:21;15.95;;;5.72;;
48925;SDS011;39838;59.938;30.642;2022-08-19T11:13:48;20.20;;;5.60;;
48925;SDS011;39838;59.938;30.642;2022-08-19T11:16:16;18.23;;;5.78;;
48925;SDS011;39838;59.938;30.642;2022-08-19T11:21:18;8.30;;;5.38;;
48925;SDS011;39838;59.938;30.642;2022-08-19T11:23:48;7.63;;;5.25;;
48925;SDS011;39838;59.938;30.642;2022-08-19T11:26:18;14.40;;;5.72;;
48925;SDS011;39838;59.938;30.642;2022-08-19T11:28:47;10.25;;;5.75;;
48925;SDS011;39838;59.938;30.642;2022-08-19T11:31:17;11.48;;;5.63;;
48925;SDS011;39838;59.938;30.642;2022-08-19T11:33:45;10.63;;;5.60;;
48925;SDS011;39838;59.938;30.642;2022-08-19T11:36:15;11.50;;;5.53;;
48925;SDS011;39838;59.938;30.642;2022-08-19T11:38:43;19.48;;;5.70;;
48925;SDS011;39838;59.938;30.642;2022-08-19T11:41:14;9.73;;;5.47;;
48925;SDS011;39838;59.938;30.642;2022-08-19T11:43:43;11.00;;;5.40;;
48925;SDS011;39838;59.938;30.642;2022-08-19T11:46:11;11.75;;;5.20;;
48925;SDS011;39838;59.938;30.642;2022-08-19T11:48:40;15.10;;;5.30;;
48925;SDS011;39838;59.938;30.642;2022-08-19T11:51:09;12.05;;;5.50;;
48925;SDS011;39838;59.938;30.642;2022-08-19T11:53:38;13.50;;;5.60;;
48925;SDS011;39838;59.938;30.642;2022-08-19T11:56:06;15.52;;;5.43;;
48925;SDS011;39838;59.938;30.642;2022-08-19T11:58:35;8.48;;;5.20;;
48925;SDS011;39838;59.938;30.642;2022-08-19T12:01:06;15.13;;;5.25;;
48925;SDS011;39838;59.938;30.642;2022-08-19T12:03:36;17.02;;;5.70;;
48925;SDS011;39838;59.938;30.642;2022-08-19T12:06:04;14.43;;;5.20;;
48925;SDS011;39838;59.938;30.642;2022-08-19T12:08:32;13.43;;;5.10;;
48925;SDS011;39838;59.938;30.642;2022-08-19T12:10:59;12.40;;;5.43;;
48925;SDS011;39838;59.938;30.642;2022-08-19T12:13:27;9.20;;;5.68;;
48925;SDS011;39838;59.938;30.642;2022-08-19T12:15:55;10.63;;;5.30;;
48925;SDS011;39838;59.938;30.642;2022-08-19T12:18:24;7.45;;;4.95;;
48925;SDS011;39838;59.938;30.642;2022-08-19T12:20:52;9.35;;;4.95;;
48925;SDS011;39838;59.938;30.642;2022-08-19T12:23:21;9.05;;;5.03;;
48925;SDS011;39838;59.938;30.642;2022-08-19T12:25:48;14.15;;;5.00;;
48925;SDS011;39838;59.938;30.642;2022-08-19T12:28:17;10.15;;;4.85;;
48925;SDS011;39838;59.938;30.642;2022-08-19T12:30:44;8.63;;;5.15;;
48925;SDS011;39838;59.938;30.642;2022-08-19T12:33:12;10.10;;;5.10;;
48925;SDS011;39838;59.938;30.642;2022-08-19T12:35:41;10.80;;;5.50;;
48925;SDS011;39838;59.938;30.642;2022-08-19T12:38:11;11.25;;;4.85;;
48925;SDS011;39838;59.938;30.642;2022-08-19T12:40:39;8.30;;;4.75;;
48925;SDS011;39838;59.938;30.642;2022-08-19T12:43:07;12.55;;;4.68;;
48925;SDS011;39838;59.938;30.642;2022-08-19T12:45:37;10.52;;;5.20;;
48925;SDS011;39838;59.938;30.642;2022-08-19T12:48:04;7.40;;;4.53;;
48925;SDS011;39838;59.938;30.642;2022-08-19T12:50:31;7.20;;;5.10;;
48925;SDS011;39838;59.938;30.642;2022-08-19T12:53:00;10.50;;;5.30;;
48925;SDS011;39838;59.938;30.642;2022-08-19T12:55:27;9.90;;;5.20;;
48925;SDS011;39838;59.938;30.642;2022-08-19T12:57:55;12.90;;;5.40;;
48925;SDS011;39838;59.938;30.642;2022-08-19T13:00:22;13.07;;;5.10;;
48925;SDS011;39838;59.938;30.642;2022-08-19T13:02:50;12.55;;;4.85;;
48925;SDS011;39838;59.938;30.642;2022-08-19T13:05:21;10.48;;;5.10;;
48925;SDS011;39838;59.938;30.642;2022-08-19T13:07:50;11.85;;;5.30;;
48925;SDS011;39838;59.938;30.642;2022-08-19T13:10:23;10.90;;;5.00;;
48925;SDS011;39838;59.938;30.642;2022-08-19T13:12:53;12.05;;;5.15;;
48925;SDS011;39838;59.938;30.642;2022-08-19T13:15:21;11.57;;;5.40;;
48925;SDS011;39838;59.938;30.642;2022-08-19T13:17:50;9.57;;;5.45;;
48925;SDS011;39838;59.938;30.642;2022-08-19T13:20:19;8.27;;;5.35;;
48925;SDS011;39838;59.938;30.642;2022-08-19T13:22:47;10.48;;;5.65;;
48925;SDS011;39838;59.938;30.642;2022-08-19T13:25:14;9.50;;;5.07;;
48925;SDS011;39838;59.938;30.642;2022-08-19T13:27:46;13.43;;;5.57;;
48925;SDS011;39838;59.938;30.642;2022-08-19T13:30:15;15.32;;;5.65;;
48925;SDS011;39838;59.938;30.642;2022-08-19T13:33:00;13.57;;;5.85;;
48925;SDS011;39838;59.938;30.642;2022-08-19T13:35:36;12.73;;;6.00;;
48925;SDS011;39838;59.938;30.642;2022-08-19T13:38:04;12.55;;;5.60;;
48925;SDS011;39838;59.938;30.642;2022-08-19T13:40:32;7.43;;;5.10;;
48925;SDS011;39838;59.938;30.642;2022-08-19T13:43:01;11.02;;;5.13;;
48925;SDS011;39838;59.938;30.642;2022-08-19T13:45:32;11.07;;;5.05;;
48925;SDS011;39838;59.938;30.642;2022-08-19T13:48:00;7.45;;;5.10;;
48925;SDS011;39838;59.938;30.642;2022-08-19T13:50:32;12.38;;;5.30;;
48925;SDS011;39838;59.938;30.642;2022-08-19T13:53:00;9.55;;;5.25;;
48925;SDS011;39838;59.938;30.642;2022-08-19T13:55:29;12.27;;;5.13;;
48925;SDS011;39838;59.938;30.642;2022-08-19T13:57:58;16.45;;;5.30;;
48925;SDS011;39838;59.938;30.642;2022-08-19T14:00:28;16.35;;;5.40;;
48925;SDS011;39838;59.938;30.642;2022-08-19T14:02:57;12.52;;;5.50;;
48925;SDS011;39838;59.938;30.642;2022-08-19T14:05:25;18.63;;;5.53;;
48925;SDS011;39838;59.938;30.642;2022-08-19T14:07:54;13.55;;;5.53;;
48925;SDS011;39838;59.938;30.642;2022-08-19T14:10:21;10.02;;;5.22;;
48925;SDS011;39838;59.938;30.642;2022-08-19T14:12:49;11.65;;;5.38;;
48925;SDS011;39838;59.938;30.642;2022-08-19T14:15:20;17.88;;;5.63;;
48925;SDS011;39838;59.938;30.642;2022-08-19T14:17:49;11.95;;;5.43;;
48925;SDS011;39838;59.938;30.642;2022-08-19T14:20:17;9.27;;;5.43;;
48925;SDS011;39838;59.938;30.642;2022-08-19T14:22:45;13.18;;;5.55;;
48925;SDS011;39838;59.938;30.642;2022-08-19T14:25:14;14.73;;;5.70;;
48925;SDS011;39838;59.938;30.642;2022-08-19T14:27:44;15.80;;;5.45;;
48925;SDS011;39838;59.938;30.642;2022-08-19T14:30:13;15.73;;;5.75;;
48925;SDS011;39838;59.938;30.642;2022-08-19T14:32:41;10.85;;;5.28;;